AFR89VR LFPG-LFLL
Flight info
| Callsign | AFR89VR |
|---|---|
| Flight time | 0h 47m |
| Altitude | 27000 |
| Route | OKASI DCT OKEKO DCT OKEPI DCT MOU |
| Aircraft | E190/M-SDE2E3FGIJ1RWY/HB1 |
Departure
| Time | 2026-05-08 13:10 |
|---|---|
| Airport | Charles de Gaulle International Airport (LFPG) |
Arrival
| Time | 2026-05-08 13:57 |
|---|---|
| Airport | Lyon Saint-Exupéry Airport (LFLL) |
| Time | Latitude | Longitude | Altitude | Speed | Heading |
|---|---|---|---|---|---|
| 2026-05-08 12:44 | 49.00412 | 2.60117 | 380 ft | 0 kts | 267° |
| 2026-05-08 12:56 | 49.00413 | 2.60137 | 358 ft | 4 kts | 260° |
| 2026-05-08 12:57 | 49.00421 | 2.60174 | 360 ft | 4 kts | 229° |
| 2026-05-08 12:57 | 49.00440 | 2.60193 | 362 ft | 3 kts | 178° |
| 2026-05-08 12:57 | 49.00444 | 2.60193 | 360 ft | 3 kts | 175° |
| 2026-05-08 13:00 | 49.00443 | 2.60194 | 353 ft | 0 kts | 175° |
| 2026-05-08 13:00 | 49.00438 | 2.60194 | 357 ft | 2 kts | 175° |
| 2026-05-08 13:01 | 49.00414 | 2.60197 | 353 ft | 5 kts | 175° |
| 2026-05-08 13:01 | 49.00369 | 2.60201 | 353 ft | 8 kts | 183° |
| 2026-05-08 13:01 | 49.00341 | 2.60136 | 356 ft | 9 kts | 254° |
| 2026-05-08 13:01 | 49.00334 | 2.60034 | 353 ft | 11 kts | 265° |
| 2026-05-08 13:02 | 49.00327 | 2.59910 | 353 ft | 13 kts | 265° |
| 2026-05-08 13:02 | 49.00319 | 2.59763 | 353 ft | 15 kts | 265° |
| 2026-05-08 13:02 | 49.00294 | 2.59606 | 358 ft | 16 kts | 248° |
| 2026-05-08 13:02 | 49.00233 | 2.59484 | 358 ft | 17 kts | 184° |
| 2026-05-08 13:03 | 49.00111 | 2.59494 | 356 ft | 18 kts | 187° |
| 2026-05-08 13:03 | 49.00065 | 2.59333 | 358 ft | 19 kts | 265° |
| 2026-05-08 13:03 | 49.00054 | 2.59127 | 353 ft | 20 kts | 265° |
| 2026-05-08 13:03 | 49.00042 | 2.58899 | 353 ft | 22 kts | 264° |
| 2026-05-08 13:04 | 49.00029 | 2.58659 | 353 ft | 24 kts | 266° |
| 2026-05-08 13:04 | 49.00016 | 2.58406 | 356 ft | 25 kts | 265° |
| 2026-05-08 13:04 | 49.00002 | 2.58135 | 361 ft | 26 kts | 265° |
| 2026-05-08 13:04 | 48.99987 | 2.57852 | 356 ft | 27 kts | 265° |
| 2026-05-08 13:05 | 48.99970 | 2.57565 | 353 ft | 27 kts | 265° |
| 2026-05-08 13:05 | 48.99956 | 2.57278 | 353 ft | 26 kts | 266° |
| 2026-05-08 13:05 | 48.99940 | 2.56996 | 353 ft | 27 kts | 265° |
| 2026-05-08 13:05 | 48.99924 | 2.56703 | 353 ft | 27 kts | 265° |
| 2026-05-08 13:06 | 48.99910 | 2.56412 | 356 ft | 25 kts | 266° |
| 2026-05-08 13:06 | 48.99899 | 2.56201 | 355 ft | 20 kts | 265° |
| 2026-05-08 13:06 | 48.99893 | 2.56087 | 353 ft | 0 kts | 265° |
| 2026-05-08 13:06 | 48.99892 | 2.56075 | 353 ft | 2 kts | 264° |
| 2026-05-08 13:07 | 48.99884 | 2.56043 | 360 ft | 5 kts | 237° |
| 2026-05-08 13:07 | 48.99847 | 2.56018 | 354 ft | 7 kts | 186° |
| 2026-05-08 13:07 | 48.99792 | 2.56023 | 356 ft | 9 kts | 175° |
| 2026-05-08 13:07 | 48.99727 | 2.56031 | 353 ft | 7 kts | 175° |
| 2026-05-08 13:08 | 48.99721 | 2.56032 | 353 ft | 0 kts | 175° |
| 2026-05-08 13:08 | 48.99719 | 2.56032 | 353 ft | 2 kts | 175° |
| 2026-05-08 13:08 | 48.99690 | 2.56035 | 353 ft | 6 kts | 175° |
| 2026-05-08 13:08 | 48.99637 | 2.56042 | 353 ft | 9 kts | 176° |
| 2026-05-08 13:09 | 48.99614 | 2.56105 | 357 ft | 8 kts | 85° |
| 2026-05-08 13:09 | 48.99626 | 2.56318 | 362 ft | 45 kts | 84° |
| 2026-05-08 13:09 | 48.99670 | 2.57137 | 350 ft | 108 kts | 85° |
| 2026-05-08 13:09 | 48.99741 | 2.58536 | 452 ft | 147 kts | 83° |
| 2026-05-08 13:10 | 48.99830 | 2.60174 | 1014 ft | 162 kts | 84° |
| 2026-05-08 13:10 | 48.99935 | 2.61889 | 1732 ft | 167 kts | 85° |
| 2026-05-08 13:10 | 49.00032 | 2.63702 | 2333 ft | 178 kts | 85° |
| 2026-05-08 13:10 | 49.00133 | 2.65646 | 2895 ft | 188 kts | 85° |
| 2026-05-08 13:11 | 49.00238 | 2.67688 | 3492 ft | 197 kts | 85° |
| 2026-05-08 13:11 | 49.00346 | 2.69831 | 4016 ft | 208 kts | 85° |
| 2026-05-08 13:11 | 49.00462 | 2.72076 | 4550 ft | 217 kts | 85° |
| 2026-05-08 13:11 | 49.00585 | 2.74424 | 5045 ft | 227 kts | 85° |
| 2026-05-08 13:12 | 49.00677 | 2.76852 | 5566 ft | 232 kts | 91° |
| 2026-05-08 13:12 | 49.00556 | 2.79314 | 6091 ft | 236 kts | 101° |
| 2026-05-08 13:12 | 48.99892 | 2.81603 | 6594 ft | 239 kts | 127° |
| 2026-05-08 13:12 | 48.98621 | 2.83268 | 7073 ft | 247 kts | 153° |
| 2026-05-08 13:13 | 48.96917 | 2.84048 | 7274 ft | 270 kts | 179° |
| 2026-05-08 13:13 | 48.95055 | 2.83679 | 7805 ft | 277 kts | 191° |
| 2026-05-08 13:13 | 48.93153 | 2.83143 | 8516 ft | 278 kts | 191° |
| 2026-05-08 13:13 | 48.91214 | 2.82658 | 9289 ft | 279 kts | 189° |
| 2026-05-08 13:14 | 48.89289 | 2.82212 | 10030 ft | 281 kts | 189° |
| 2026-05-08 13:14 | 48.87348 | 2.81759 | 10712 ft | 283 kts | 190° |
| 2026-05-08 13:14 | 48.85420 | 2.81298 | 11403 ft | 285 kts | 190° |
| 2026-05-08 13:14 | 48.83457 | 2.80823 | 12093 ft | 287 kts | 190° |
| 2026-05-08 13:15 | 48.81477 | 2.80335 | 12776 ft | 290 kts | 190° |
| 2026-05-08 13:15 | 48.79473 | 2.79876 | 13458 ft | 292 kts | 191° |
| 2026-05-08 13:15 | 48.77463 | 2.79341 | 14110 ft | 295 kts | 192° |
| 2026-05-08 13:15 | 48.75437 | 2.78768 | 14712 ft | 298 kts | 192° |
| 2026-05-08 13:16 | 48.73393 | 2.78187 | 15340 ft | 300 kts | 192° |
| 2026-05-08 13:16 | 48.71336 | 2.77602 | 15971 ft | 302 kts | 192° |
| 2026-05-08 13:16 | 48.69233 | 2.76994 | 16598 ft | 305 kts | 193° |
| 2026-05-08 13:16 | 48.67166 | 2.76379 | 17185 ft | 308 kts | 193° |
| 2026-05-08 13:17 | 48.65055 | 2.75737 | 17816 ft | 311 kts | 193° |
| 2026-05-08 13:17 | 48.62924 | 2.75099 | 18420 ft | 314 kts | 193° |
| 2026-05-08 13:17 | 48.60782 | 2.74411 | 18984 ft | 316 kts | 194° |
| 2026-05-08 13:17 | 48.58630 | 2.73686 | 19553 ft | 318 kts | 195° |
| 2026-05-08 13:18 | 48.56463 | 2.72952 | 20116 ft | 321 kts | 195° |
| 2026-05-08 13:18 | 48.54278 | 2.72211 | 20657 ft | 323 kts | 195° |
| 2026-05-08 13:18 | 48.52073 | 2.71456 | 21188 ft | 326 kts | 195° |
| 2026-05-08 13:18 | 48.49859 | 2.70674 | 21681 ft | 328 kts | 196° |
| 2026-05-08 13:19 | 48.47630 | 2.69863 | 22187 ft | 331 kts | 196° |
| 2026-05-08 13:19 | 48.45388 | 2.69029 | 22681 ft | 333 kts | 197° |
| 2026-05-08 13:19 | 48.43128 | 2.68175 | 23176 ft | 336 kts | 197° |
| 2026-05-08 13:19 | 48.40856 | 2.67305 | 23669 ft | 339 kts | 197° |
| 2026-05-08 13:20 | 48.38554 | 2.66410 | 23991 ft | 344 kts | 198° |
| 2026-05-08 13:20 | 48.36224 | 2.65486 | 24377 ft | 348 kts | 199° |
| 2026-05-08 13:20 | 48.33872 | 2.64546 | 24769 ft | 352 kts | 199° |
| 2026-05-08 13:20 | 48.31497 | 2.63585 | 25155 ft | 355 kts | 200° |
| 2026-05-08 13:21 | 48.29075 | 2.62726 | 25517 ft | 363 kts | 192° |
| 2026-05-08 13:21 | 48.26511 | 2.62770 | 25851 ft | 376 kts | 174° |
| 2026-05-08 13:21 | 48.23991 | 2.64010 | 26198 ft | 388 kts | 157° |
| 2026-05-08 13:21 | 48.21608 | 2.65974 | 26540 ft | 394 kts | 153° |
| 2026-05-08 13:22 | 48.19243 | 2.68088 | 26848 ft | 398 kts | 153° |
| 2026-05-08 13:22 | 48.16855 | 2.70227 | 27168 ft | 400 kts | 153° |
| 2026-05-08 13:22 | 48.14420 | 2.72396 | 27166 ft | 414 kts | 153° |
| 2026-05-08 13:22 | 48.11910 | 2.74632 | 27139 ft | 426 kts | 153° |
| 2026-05-08 13:23 | 48.09320 | 2.76930 | 26992 ft | 437 kts | 152° |
| 2026-05-08 13:23 | 48.06617 | 2.79024 | 27034 ft | 442 kts | 159° |
| 2026-05-08 13:23 | 48.03768 | 2.80881 | 27030 ft | 451 kts | 161° |
| 2026-05-08 13:23 | 48.00845 | 2.82708 | 27019 ft | 460 kts | 161° |
| 2026-05-08 13:24 | 47.97880 | 2.84575 | 27016 ft | 465 kts | 160° |
| 2026-05-08 13:24 | 47.94879 | 2.86475 | 27017 ft | 470 kts | 160° |
| 2026-05-08 13:24 | 47.91867 | 2.88388 | 27006 ft | 471 kts | 160° |
| 2026-05-08 13:24 | 47.88853 | 2.90302 | 26996 ft | 472 kts | 160° |
| 2026-05-08 13:25 | 47.85835 | 2.92215 | 27003 ft | 471 kts | 160° |
| 2026-05-08 13:25 | 47.82821 | 2.94125 | 27005 ft | 471 kts | 160° |
| 2026-05-08 13:25 | 47.79805 | 2.96032 | 26993 ft | 468 kts | 160° |
| 2026-05-08 13:25 | 47.76819 | 2.97920 | 26992 ft | 467 kts | 160° |
| 2026-05-08 13:26 | 47.73825 | 2.99807 | 26979 ft | 468 kts | 160° |
| 2026-05-08 13:26 | 47.70821 | 3.01699 | 26987 ft | 469 kts | 160° |
| 2026-05-08 13:26 | 47.67814 | 3.03592 | 27007 ft | 469 kts | 160° |
| 2026-05-08 13:26 | 47.64811 | 3.05481 | 27008 ft | 469 kts | 160° |
| 2026-05-08 13:27 | 47.61841 | 3.07346 | 27003 ft | 469 kts | 160° |
| 2026-05-08 13:27 | 47.58833 | 3.09230 | 26999 ft | 469 kts | 160° |
| 2026-05-08 13:27 | 47.55825 | 3.11115 | 26999 ft | 470 kts | 160° |
| 2026-05-08 13:27 | 47.52816 | 3.12995 | 27009 ft | 470 kts | 160° |
| 2026-05-08 13:28 | 47.49800 | 3.14861 | 27001 ft | 470 kts | 161° |
| 2026-05-08 13:28 | 47.46783 | 3.16723 | 26998 ft | 470 kts | 161° |
| 2026-05-08 13:28 | 47.43760 | 3.18585 | 27001 ft | 470 kts | 161° |
| 2026-05-08 13:28 | 47.40746 | 3.20443 | 26995 ft | 470 kts | 161° |
| 2026-05-08 13:29 | 47.37728 | 3.22300 | 26995 ft | 470 kts | 161° |
| 2026-05-08 13:29 | 47.34713 | 3.24155 | 26993 ft | 470 kts | 161° |
| 2026-05-08 13:29 | 47.31700 | 3.26006 | 27002 ft | 469 kts | 161° |
| 2026-05-08 13:29 | 47.28688 | 3.27853 | 26995 ft | 469 kts | 161° |
| 2026-05-08 13:30 | 47.25669 | 3.29703 | 26998 ft | 470 kts | 161° |
| 2026-05-08 13:30 | 47.22657 | 3.31545 | 26987 ft | 468 kts | 161° |
| 2026-05-08 13:30 | 47.19651 | 3.33382 | 26990 ft | 468 kts | 161° |
| 2026-05-08 13:30 | 47.16640 | 3.35220 | 26991 ft | 468 kts | 161° |
| 2026-05-08 13:31 | 47.13632 | 3.37055 | 26983 ft | 468 kts | 161° |
| 2026-05-08 13:31 | 47.10629 | 3.38892 | 26997 ft | 468 kts | 160° |
| 2026-05-08 13:31 | 47.07628 | 3.40733 | 26989 ft | 467 kts | 160° |
| 2026-05-08 13:31 | 47.04623 | 3.42574 | 26988 ft | 468 kts | 160° |
| 2026-05-08 13:32 | 47.01618 | 3.44408 | 26990 ft | 468 kts | 161° |
| 2026-05-08 13:32 | 46.98612 | 3.46241 | 26991 ft | 467 kts | 160° |
| 2026-05-08 13:32 | 46.95609 | 3.48071 | 26989 ft | 468 kts | 160° |
| 2026-05-08 13:32 | 46.92603 | 3.49901 | 26987 ft | 468 kts | 161° |
| 2026-05-08 13:33 | 46.89598 | 3.51726 | 26999 ft | 467 kts | 160° |
| 2026-05-08 13:33 | 46.86590 | 3.53552 | 26990 ft | 468 kts | 160° |
| 2026-05-08 13:33 | 46.83586 | 3.55373 | 26985 ft | 467 kts | 160° |
| 2026-05-08 13:33 | 46.80583 | 3.57190 | 26983 ft | 468 kts | 160° |
| 2026-05-08 13:34 | 46.77577 | 3.59009 | 26982 ft | 468 kts | 160° |
| 2026-05-08 13:34 | 46.74567 | 3.60827 | 26981 ft | 468 kts | 161° |
| 2026-05-08 13:34 | 46.71566 | 3.62638 | 26375 ft | 467 kts | 160° |
| 2026-05-08 13:34 | 46.68557 | 3.64426 | 25207 ft | 465 kts | 161° |
| 2026-05-08 13:35 | 46.66576 | 3.65535 | 24660 ft | 455 kts | 162° |
| 2026-05-08 13:35 | 46.63657 | 3.67145 | 24098 ft | 442 kts | 162° |
| 2026-05-08 13:35 | 46.60815 | 3.68725 | 23497 ft | 432 kts | 162° |
| 2026-05-08 13:35 | 46.58044 | 3.70267 | 22937 ft | 420 kts | 162° |
| 2026-05-08 13:36 | 46.55358 | 3.71765 | 22376 ft | 408 kts | 162° |
| 2026-05-08 13:36 | 46.52735 | 3.73226 | 21875 ft | 400 kts | 162° |
| 2026-05-08 13:36 | 46.50152 | 3.74664 | 21339 ft | 398 kts | 162° |
| 2026-05-08 13:36 | 46.47570 | 3.76098 | 20840 ft | 397 kts | 162° |
| 2026-05-08 13:37 | 46.45000 | 3.77526 | 20315 ft | 393 kts | 162° |
| 2026-05-08 13:37 | 46.42458 | 3.78938 | 19807 ft | 389 kts | 162° |
| 2026-05-08 13:37 | 46.39951 | 3.80328 | 19292 ft | 383 kts | 162° |
| 2026-05-08 13:37 | 46.37508 | 3.81779 | 19018 ft | 378 kts | 155° |
| 2026-05-08 13:38 | 46.35424 | 3.84113 | 18734 ft | 384 kts | 134° |
| 2026-05-08 13:38 | 46.33779 | 3.87147 | 18654 ft | 385 kts | 129° |
| 2026-05-08 13:38 | 46.32174 | 3.90250 | 18496 ft | 385 kts | 129° |
| 2026-05-08 13:38 | 46.30564 | 3.93337 | 18357 ft | 384 kts | 130° |
| 2026-05-08 13:39 | 46.28946 | 3.96407 | 18220 ft | 382 kts | 130° |
| 2026-05-08 13:39 | 46.27331 | 3.99456 | 18078 ft | 382 kts | 130° |
| 2026-05-08 13:39 | 46.25708 | 4.02507 | 17946 ft | 382 kts | 130° |
| 2026-05-08 13:39 | 46.24089 | 4.05545 | 17805 ft | 381 kts | 130° |
| 2026-05-08 13:40 | 46.22472 | 4.08576 | 17663 ft | 380 kts | 130° |
| 2026-05-08 13:40 | 46.20859 | 4.11596 | 17528 ft | 379 kts | 130° |
| 2026-05-08 13:40 | 46.19248 | 4.14608 | 17373 ft | 378 kts | 130° |
| 2026-05-08 13:40 | 46.17644 | 4.17610 | 17241 ft | 377 kts | 130° |
| 2026-05-08 13:41 | 46.16041 | 4.20600 | 17092 ft | 376 kts | 130° |
| 2026-05-08 13:41 | 46.14462 | 4.23538 | 16959 ft | 375 kts | 130° |
| 2026-05-08 13:41 | 46.12864 | 4.26508 | 16818 ft | 374 kts | 130° |
| 2026-05-08 13:41 | 46.11267 | 4.29473 | 16679 ft | 374 kts | 130° |
| 2026-05-08 13:42 | 46.09675 | 4.32427 | 16550 ft | 373 kts | 130° |
| 2026-05-08 13:42 | 46.08085 | 4.35372 | 16416 ft | 372 kts | 130° |
| 2026-05-08 13:42 | 46.06501 | 4.38300 | 16268 ft | 370 kts | 130° |
| 2026-05-08 13:42 | 46.04923 | 4.41215 | 16143 ft | 369 kts | 130° |
| 2026-05-08 13:43 | 46.03346 | 4.44121 | 16007 ft | 368 kts | 130° |
| 2026-05-08 13:43 | 46.01772 | 4.47020 | 15874 ft | 367 kts | 130° |
| 2026-05-08 13:43 | 46.00202 | 4.49917 | 15622 ft | 367 kts | 130° |
| 2026-05-08 13:43 | 45.98702 | 4.52861 | 15428 ft | 367 kts | 125° |
| 2026-05-08 13:44 | 45.97391 | 4.56011 | 14941 ft | 367 kts | 122° |
| 2026-05-08 13:44 | 45.96123 | 4.59144 | 14415 ft | 358 kts | 123° |
| 2026-05-08 13:44 | 45.94489 | 4.61724 | 13926 ft | 344 kts | 145° |
| 2026-05-08 13:44 | 45.92415 | 4.63283 | 13508 ft | 331 kts | 159° |
| 2026-05-08 13:45 | 45.90305 | 4.64503 | 13051 ft | 323 kts | 158° |
| 2026-05-08 13:45 | 45.88273 | 4.65767 | 12646 ft | 315 kts | 157° |
| 2026-05-08 13:45 | 45.86301 | 4.67064 | 12226 ft | 308 kts | 156° |
| 2026-05-08 13:45 | 45.84383 | 4.68370 | 11812 ft | 302 kts | 155° |
| 2026-05-08 13:46 | 45.82510 | 4.69670 | 11439 ft | 297 kts | 155° |
| 2026-05-08 13:46 | 45.80668 | 4.70958 | 11046 ft | 292 kts | 155° |
| 2026-05-08 13:46 | 45.78852 | 4.72227 | 10654 ft | 288 kts | 155° |
| 2026-05-08 13:46 | 45.77067 | 4.73475 | 10276 ft | 284 kts | 156° |
| 2026-05-08 13:47 | 45.75303 | 4.74704 | 9903 ft | 280 kts | 156° |
| 2026-05-08 13:47 | 45.73560 | 4.75917 | 9518 ft | 277 kts | 156° |
| 2026-05-08 13:47 | 45.71840 | 4.77117 | 9172 ft | 274 kts | 156° |
| 2026-05-08 13:47 | 45.70122 | 4.78316 | 8797 ft | 275 kts | 156° |
| 2026-05-08 13:48 | 45.68400 | 4.79511 | 8428 ft | 275 kts | 156° |
| 2026-05-08 13:48 | 45.66682 | 4.80708 | 8059 ft | 274 kts | 155° |
| 2026-05-08 13:48 | 45.64975 | 4.81895 | 7711 ft | 272 kts | 155° |
| 2026-05-08 13:48 | 45.63277 | 4.83077 | 7353 ft | 271 kts | 156° |
| 2026-05-08 13:49 | 45.61604 | 4.84240 | 6897 ft | 273 kts | 155° |
| 2026-05-08 13:49 | 45.59908 | 4.85451 | 6508 ft | 271 kts | 150° |
| 2026-05-08 13:49 | 45.58571 | 4.87312 | 6179 ft | 269 kts | 127° |
| 2026-05-08 13:49 | 45.57597 | 4.89551 | 5782 ft | 262 kts | 122° |
| 2026-05-08 13:50 | 45.56710 | 4.91778 | 5465 ft | 254 kts | 122° |
| 2026-05-08 13:50 | 45.55824 | 4.93938 | 5122 ft | 249 kts | 122° |
| 2026-05-08 13:50 | 45.54941 | 4.96036 | 4787 ft | 244 kts | 123° |
| 2026-05-08 13:50 | 45.54073 | 4.98068 | 4488 ft | 235 kts | 123° |
| 2026-05-08 13:51 | 45.53239 | 5.00019 | 4135 ft | 227 kts | 123° |
| 2026-05-08 13:51 | 45.52498 | 5.01948 | 3934 ft | 219 kts | 111° |
| 2026-05-08 13:51 | 45.52330 | 5.04069 | 3672 ft | 214 kts | 89° |
| 2026-05-08 13:51 | 45.52506 | 5.06159 | 3358 ft | 210 kts | 84° |
| 2026-05-08 13:52 | 45.52694 | 5.08166 | 3208 ft | 197 kts | 85° |
| 2026-05-08 13:52 | 45.52905 | 5.10066 | 3097 ft | 192 kts | 71° |
| 2026-05-08 13:52 | 45.53765 | 5.11471 | 2987 ft | 191 kts | 25° |
| 2026-05-08 13:52 | 45.55048 | 5.11576 | 3065 ft | 186 kts | 348° |
| 2026-05-08 13:53 | 45.56352 | 5.11215 | 3159 ft | 195 kts | 352° |
| 2026-05-08 13:53 | 45.57720 | 5.11098 | 3162 ft | 198 kts | 356° |
| 2026-05-08 13:53 | 45.59096 | 5.10963 | 2935 ft | 199 kts | 352° |
| 2026-05-08 13:53 | 45.60394 | 5.10771 | 2986 ft | 178 kts | 354° |
| 2026-05-08 13:54 | 45.61634 | 5.10624 | 2680 ft | 176 kts | 354° |
| 2026-05-08 13:54 | 45.62826 | 5.10491 | 2448 ft | 168 kts | 354° |
| 2026-05-08 13:54 | 45.63980 | 5.10345 | 2245 ft | 165 kts | 354° |
| 2026-05-08 13:54 | 45.65105 | 5.10208 | 2034 ft | 160 kts | 353° |
| 2026-05-08 13:55 | 45.66163 | 5.10078 | 1866 ft | 143 kts | 354° |
| 2026-05-08 13:55 | 45.67134 | 5.09940 | 1673 ft | 141 kts | 354° |
| 2026-05-08 13:55 | 45.69103 | 5.09714 | 1293 ft | 143 kts | 355° |
| 2026-05-08 13:56 | 45.70092 | 5.09597 | 1083 ft | 142 kts | 355° |
| 2026-05-08 13:56 | 45.71091 | 5.09480 | 878 ft | 147 kts | 354° |
| 2026-05-08 13:56 | 45.72040 | 5.09366 | 818 ft | 120 kts | 356° |
| 2026-05-08 13:56 | 45.72732 | 5.09282 | 803 ft | 77 kts | 354° |
| 2026-05-08 13:57 | 45.72986 | 5.09220 | 797 ft | 12 kts | 275° |
| 2026-05-08 13:57 | 45.72976 | 5.09091 | 796 ft | 15 kts | 264° |
| 2026-05-08 13:57 | 45.72963 | 5.08916 | 791 ft | 19 kts | 264° |
| 2026-05-08 13:57 | 45.72954 | 5.08723 | 790 ft | 20 kts | 266° |
| 2026-05-08 13:58 | 45.72943 | 5.08522 | 789 ft | 22 kts | 264° |
| 2026-05-08 13:58 | 45.72862 | 5.08359 | 789 ft | 22 kts | 191° |
| 2026-05-08 13:58 | 45.72707 | 5.08370 | 790 ft | 23 kts | 175° |
| 2026-05-08 13:58 | 45.72552 | 5.08388 | 795 ft | 22 kts | 175° |
| 2026-05-08 13:59 | 45.72399 | 5.08407 | 796 ft | 22 kts | 175° |
| 2026-05-08 13:59 | 45.72246 | 5.08427 | 798 ft | 22 kts | 175° |
| 2026-05-08 13:59 | 45.72094 | 5.08443 | 802 ft | 22 kts | 176° |
| 2026-05-08 13:59 | 45.71935 | 5.08464 | 801 ft | 24 kts | 175° |
| 2026-05-08 14:00 | 45.71768 | 5.08484 | 801 ft | 22 kts | 175° |
| 2026-05-08 14:00 | 45.71683 | 5.08400 | 799 ft | 18 kts | 262° |
| 2026-05-08 14:00 | 45.71659 | 5.08292 | 799 ft | 9 kts | 208° |
| 2026-05-08 14:00 | 45.71601 | 5.08270 | 800 ft | 6 kts | 195° |
| 2026-05-08 14:01 | 45.71594 | 5.08267 | 800 ft | 0 kts | 195° |